sensor_id;sensor_type;location;lat;lon;timestamp;temperature;humidity
15407;DHT22;7802;51.568;6.364;2022-11-20T00:02:33;-0.30;99.90
15407;DHT22;7802;51.568;6.364;2022-11-20T00:05:20;-0.30;99.90
15407;DHT22;7802;51.568;6.364;2022-11-20T00:08:07;-0.30;99.90
15407;DHT22;7802;51.568;6.364;2022-11-20T00:10:54;-0.40;99.90
15407;DHT22;7802;51.568;6.364;2022-11-20T00:13:41;-0.40;99.90
15407;DHT22;7802;51.568;6.364;2022-11-20T00:16:30;-0.40;99.90
15407;DHT22;7802;51.568;6.364;2022-11-20T00:19:18;-0.40;99.90
15407;DHT22;7802;51.568;6.364;2022-11-20T00:22:05;-0.30;99.90
15407;DHT22;7802;51.568;6.364;2022-11-20T00:24:52;-0.40;99.90
15407;DHT22;7802;51.568;6.364;2022-11-20T00:27:39;-0.30;99.90
15407;DHT22;7802;51.568;6.364;2022-11-20T00:30:26;-0.30;99.90
15407;DHT22;7802;51.568;6.364;2022-11-20T00:33:13;-0.40;99.90
15407;DHT22;7802;51.568;6.364;2022-11-20T00:36:01;-0.40;99.90
15407;DHT22;7802;51.568;6.364;2022-11-20T00:38:51;-0.40;99.90
15407;DHT22;7802;51.568;6.364;2022-11-20T00:41:38;-0.60;99.90
15407;DHT22;7802;51.568;6.364;2022-11-20T00:44:25;-0.50;99.90
15407;DHT22;7802;51.568;6.364;2022-11-20T00:47:13;-0.50;99.90
15407;DHT22;7802;51.568;6.364;2022-11-20T00:49:59;-0.40;99.90
15407;DHT22;7802;51.568;6.364;2022-11-20T00:52:46;-0.40;99.90
15407;DHT22;7802;51.568;6.364;2022-11-20T00:55:34;-0.40;99.90
15407;DHT22;7802;51.568;6.364;2022-11-20T00:58:21;-0.60;99.90
15407;DHT22;7802;51.568;6.364;2022-11-20T01:01:10;-0.50;99.90
15407;DHT22;7802;51.568;6.364;2022-11-20T01:03:59;-0.50;99.90
15407;DHT22;7802;51.568;6.364;2022-11-20T01:06:46;-0.80;99.90
15407;DHT22;7802;51.568;6.364;2022-11-20T01:09:33;-0.60;99.90
15407;DHT22;7802;51.568;6.364;2022-11-20T01:12:20;-0.70;99.90
15407;DHT22;7802;51.568;6.364;2022-11-20T01:15:08;-0.80;99.90
15407;DHT22;7802;51.568;6.364;2022-11-20T01:17:55;-0.80;99.90
15407;DHT22;7802;51.568;6.364;2022-11-20T01:20:42;-0.80;99.90
15407;DHT22;7802;51.568;6.364;2022-11-20T01:23:33;-0.70;99.90
15407;DHT22;7802;51.568;6.364;2022-11-20T01:26:21;-0.70;99.90
15407;DHT22;7802;51.568;6.364;2022-11-20T01:29:12;-0.80;99.90
15407;DHT22;7802;51.568;6.364;2022-11-20T01:32:00;-0.80;99.90
15407;DHT22;7802;51.568;6.364;2022-11-20T01:34:47;-0.90;99.90
15407;DHT22;7802;51.568;6.364;2022-11-20T01:37:35;-0.90;99.90
15407;DHT22;7802;51.568;6.364;2022-11-20T01:40:21;-0.90;99.90
15407;DHT22;7802;51.568;6.364;2022-11-20T01:43:14;-1.20;99.90
15407;DHT22;7802;51.568;6.364;2022-11-20T01:46:14;-1.40;99.90
15407;DHT22;7802;51.568;6.364;2022-11-20T01:49:03;-1.30;99.90
15407;DHT22;7802;51.568;6.364;2022-11-20T01:51:53;-1.00;99.90
15407;DHT22;7802;51.568;6.364;2022-11-20T01:54:47;-1.00;99.90
15407;DHT22;7802;51.568;6.364;2022-11-20T01:57:36;-1.00;99.90
15407;DHT22;7802;51.568;6.364;2022-11-20T02:00:24;-1.30;99.90
15407;DHT22;7802;51.568;6.364;2022-11-20T02:03:13;-1.00;99.90
15407;DHT22;7802;51.568;6.364;2022-11-20T02:06:06;-1.00;99.90
15407;DHT22;7802;51.568;6.364;2022-11-20T02:08:56;-1.10;99.90
15407;DHT22;7802;51.568;6.364;2022-11-20T02:11:43;-1.00;99.90
15407;DHT22;7802;51.568;6.364;2022-11-20T02:14:30;-1.10;99.90
15407;DHT22;7802;51.568;6.364;2022-11-20T02:17:17;-1.30;99.90
15407;DHT22;7802;51.568;6.364;2022-11-20T02:20:05;-1.10;99.90
15407;DHT22;7802;51.568;6.364;2022-11-20T02:22:56;-1.10;99.90
15407;DHT22;7802;51.568;6.364;2022-11-20T02:25:46;-1.40;99.90
15407;DHT22;7802;51.568;6.364;2022-11-20T02:28:33;-1.40;99.90
15407;DHT22;7802;51.568;6.364;2022-11-20T02:31:20;-1.20;99.90
15407;DHT22;7802;51.568;6.364;2022-11-20T02:34:07;-1.20;99.90
15407;DHT22;7802;51.568;6.364;2022-11-20T02:36:54;-1.20;99.90
15407;DHT22;7802;51.568;6.364;2022-11-20T02:39:43;-1.30;99.90
15407;DHT22;7802;51.568;6.364;2022-11-20T02:42:31;-1.30;99.90
15407;DHT22;7802;51.568;6.364;2022-11-20T02:45:19;-1.20;99.90
15407;DHT22;7802;51.568;6.364;2022-11-20T02:48:06;-1.30;99.90
15407;DHT22;7802;51.568;6.364;2022-11-20T02:50:53;-1.30;99.90
15407;DHT22;7802;51.568;6.364;2022-11-20T02:53:40;-1.30;99.90
15407;DHT22;7802;51.568;6.364;2022-11-20T02:56:27;-1.40;99.90
15407;DHT22;7802;51.568;6.364;2022-11-20T02:59:14;-1.50;99.90
15407;DHT22;7802;51.568;6.364;2022-11-20T03:02:01;-1.50;99.90
15407;DHT22;7802;51.568;6.364;2022-11-20T03:04:48;-1.60;99.90
15407;DHT22;7802;51.568;6.364;2022-11-20T03:07:35;-1.50;99.90
15407;DHT22;7802;51.568;6.364;2022-11-20T03:10:22;-1.50;99.90
15407;DHT22;7802;51.568;6.364;2022-11-20T03:13:09;-1.60;99.90
15407;DHT22;7802;51.568;6.364;2022-11-20T03:15:56;-1.50;99.90
15407;DHT22;7802;51.568;6.364;2022-11-20T03:18:43;-1.40;99.90
15407;DHT22;7802;51.568;6.364;2022-11-20T03:21:32;-1.50;99.90
15407;DHT22;7802;51.568;6.364;2022-11-20T03:24:19;-1.50;99.90
15407;DHT22;7802;51.568;6.364;2022-11-20T03:27:06;-1.60;99.90
15407;DHT22;7802;51.568;6.364;2022-11-20T03:29:52;-1.60;99.90
15407;DHT22;7802;51.568;6.364;2022-11-20T03:32:40;-1.60;99.90
15407;DHT22;7802;51.568;6.364;2022-11-20T03:35:27;-1.60;99.90
15407;DHT22;7802;51.568;6.364;2022-11-20T03:38:14;-1.70;99.90
15407;DHT22;7802;51.568;6.364;2022-11-20T03:41:02;-1.60;99.90
15407;DHT22;7802;51.568;6.364;2022-11-20T03:43:50;-1.70;99.90
15407;DHT22;7802;51.568;6.364;2022-11-20T03:46:37;-1.70;99.90
15407;DHT22;7802;51.568;6.364;2022-11-20T03:49:24;-1.80;99.90
15407;DHT22;7802;51.568;6.364;2022-11-20T03:52:11;-2.20;99.90
15407;DHT22;7802;51.568;6.364;2022-11-20T03:54:58;-1.70;99.90
15407;DHT22;7802;51.568;6.364;2022-11-20T03:57:45;-1.60;99.90
15407;DHT22;7802;51.568;6.364;2022-11-20T04:00:32;-1.50;99.90
15407;DHT22;7802;51.568;6.364;2022-11-20T04:03:19;-1.40;99.90
15407;DHT22;7802;51.568;6.364;2022-11-20T04:06:09;-1.60;99.90
15407;DHT22;7802;51.568;6.364;2022-11-20T04:08:57;-1.30;99.90
15407;DHT22;7802;51.568;6.364;2022-11-20T04:11:44;-1.30;99.90
15407;DHT22;7802;51.568;6.364;2022-11-20T04:14:31;-1.20;99.90
15407;DHT22;7802;51.568;6.364;2022-11-20T04:17:18;-1.10;99.90
15407;DHT22;7802;51.568;6.364;2022-11-20T04:20:06;-1.10;99.90
15407;DHT22;7802;51.568;6.364;2022-11-20T04:22:54;-1.00;99.90
15407;DHT22;7802;51.568;6.364;2022-11-20T04:25:41;-0.90;99.90
15407;DHT22;7802;51.568;6.364;2022-11-20T04:28:28;-0.80;99.90
15407;DHT22;7802;51.568;6.364;2022-11-20T04:31:16;-0.80;99.90
15407;DHT22;7802;51.568;6.364;2022-11-20T04:34:05;-0.70;99.90
15407;DHT22;7802;51.568;6.364;2022-11-20T04:36:52;-0.60;99.90
15407;DHT22;7802;51.568;6.364;2022-11-20T04:39:40;-0.50;99.90
15407;DHT22;7802;51.568;6.364;2022-11-20T04:42:27;-0.50;99.90
15407;DHT22;7802;51.568;6.364;2022-11-20T04:45:16;-0.40;99.90
15407;DHT22;7802;51.568;6.364;2022-11-20T04:48:04;-0.40;99.90
15407;DHT22;7802;51.568;6.364;2022-11-20T04:50:51;-0.30;99.90
15407;DHT22;7802;51.568;6.364;2022-11-20T04:53:39;-0.40;99.90
15407;DHT22;7802;51.568;6.364;2022-11-20T04:56:26;-0.50;99.90
15407;DHT22;7802;51.568;6.364;2022-11-20T04:59:13;-0.40;99.90
15407;DHT22;7802;51.568;6.364;2022-11-20T05:02:00;-0.20;99.90
15407;DHT22;7802;51.568;6.364;2022-11-20T05:04:47;-0.10;99.90
15407;DHT22;7802;51.568;6.364;2022-11-20T05:07:34;0.40;99.90
15407;DHT22;7802;51.568;6.364;2022-11-20T05:10:21;-0.20;99.90
15407;DHT22;7802;51.568;6.364;2022-11-20T05:13:08;-0.40;99.90
15407;DHT22;7802;51.568;6.364;2022-11-20T05:15:55;-0.10;99.90
15407;DHT22;7802;51.568;6.364;2022-11-20T05:18:42;-0.10;99.90
15407;DHT22;7802;51.568;6.364;2022-11-20T05:21:30;-0.20;99.90
15407;DHT22;7802;51.568;6.364;2022-11-20T05:24:17;-0.10;99.90
15407;DHT22;7802;51.568;6.364;2022-11-20T05:27:04;-0.10;99.90
15407;DHT22;7802;51.568;6.364;2022-11-20T05:29:52;-0.10;99.90
15407;DHT22;7802;51.568;6.364;2022-11-20T05:32:39;-0.20;99.90
15407;DHT22;7802;51.568;6.364;2022-11-20T05:35:25;-0.20;99.90
15407;DHT22;7802;51.568;6.364;2022-11-20T05:38:12;-0.20;99.90
15407;DHT22;7802;51.568;6.364;2022-11-20T05:41:04;-0.10;99.90
15407;DHT22;7802;51.568;6.364;2022-11-20T05:43:51;-0.10;99.90
15407;DHT22;7802;51.568;6.364;2022-11-20T05:46:39;-0.10;99.90
15407;DHT22;7802;51.568;6.364;2022-11-20T05:49:25;-0.10;99.90
15407;DHT22;7802;51.568;6.364;2022-11-20T05:52:12;-0.10;99.90
15407;DHT22;7802;51.568;6.364;2022-11-20T05:55:02;-0.30;99.90
15407;DHT22;7802;51.568;6.364;2022-11-20T05:57:49;0.00;99.90
15407;DHT22;7802;51.568;6.364;2022-11-20T06:00:36;0.00;99.90
15407;DHT22;7802;51.568;6.364;2022-11-20T06:03:24;-0.10;99.90
15407;DHT22;7802;51.568;6.364;2022-11-20T06:06:12;-0.10;99.90
15407;DHT22;7802;51.568;6.364;2022-11-20T06:08:59;-0.20;99.90
15407;DHT22;7802;51.568;6.364;2022-11-20T06:11:46;-0.20;99.90
15407;DHT22;7802;51.568;6.364;2022-11-20T06:14:33;-0.20;99.90
15407;DHT22;7802;51.568;6.364;2022-11-20T06:17:20;-0.20;99.90
15407;DHT22;7802;51.568;6.364;2022-11-20T06:20:09;-0.20;99.90
15407;DHT22;7802;51.568;6.364;2022-11-20T06:22:56;-0.30;99.90
15407;DHT22;7802;51.568;6.364;2022-11-20T06:25:43;-0.30;99.90
15407;DHT22;7802;51.568;6.364;2022-11-20T06:28:30;-0.40;99.90
15407;DHT22;7802;51.568;6.364;2022-11-20T06:31:19;-0.50;99.90
15407;DHT22;7802;51.568;6.364;2022-11-20T06:34:06;-0.50;99.90
15407;DHT22;7802;51.568;6.364;2022-11-20T06:36:54;-0.50;99.90
15407;DHT22;7802;51.568;6.364;2022-11-20T06:39:40;-0.60;99.90
15407;DHT22;7802;51.568;6.364;2022-11-20T06:42:27;-0.90;99.90
15407;DHT22;7802;51.568;6.364;2022-11-20T06:45:14;-0.30;99.90
15407;DHT22;7802;51.568;6.364;2022-11-20T06:48:02;-0.20;99.90
15407;DHT22;7802;51.568;6.364;2022-11-20T06:50:49;-0.30;99.90
15407;DHT22;7802;51.568;6.364;2022-11-20T06:53:37;-0.30;99.90
15407;DHT22;7802;51.568;6.364;2022-11-20T06:56:24;-0.20;99.90
15407;DHT22;7802;51.568;6.364;2022-11-20T07:02:50;-0.10;99.90
15407;DHT22;7802;51.568;6.364;2022-11-20T07:05:37;0.00;99.90
15407;DHT22;7802;51.568;6.364;2022-11-20T07:08:25;-0.20;99.90
15407;DHT22;7802;51.568;6.364;2022-11-20T07:11:13;-0.20;99.90
15407;DHT22;7802;51.568;6.364;2022-11-20T07:14:00;-0.70;99.90
15407;DHT22;7802;51.568;6.364;2022-11-20T07:16:47;-0.40;99.90
15407;DHT22;7802;51.568;6.364;2022-11-20T07:19:33;-0.70;99.90
15407;DHT22;7802;51.568;6.364;2022-11-20T07:22:20;-0.50;99.90
15407;DHT22;7802;51.568;6.364;2022-11-20T07:25:09;-0.90;99.90
15407;DHT22;7802;51.568;6.364;2022-11-20T07:28:03;-0.60;99.90
15407;DHT22;7802;51.568;6.364;2022-11-20T07:30:50;-0.60;99.90
15407;DHT22;7802;51.568;6.364;2022-11-20T07:33:37;-0.70;99.90
15407;DHT22;7802;51.568;6.364;2022-11-20T07:36:24;-0.70;99.90
15407;DHT22;7802;51.568;6.364;2022-11-20T07:39:11;-0.80;99.90
15407;DHT22;7802;51.568;6.364;2022-11-20T07:41:58;-0.80;99.90
15407;DHT22;7802;51.568;6.364;2022-11-20T07:44:46;0.00;99.90
15407;DHT22;7802;51.568;6.364;2022-11-20T07:47:35;-1.00;99.90
15407;DHT22;7802;51.568;6.364;2022-11-20T07:50:22;-1.10;99.90
15407;DHT22;7802;51.568;6.364;2022-11-20T07:53:09;-0.70;99.90
15407;DHT22;7802;51.568;6.364;2022-11-20T07:55:59;-1.00;99.90
15407;DHT22;7802;51.568;6.364;2022-11-20T07:58:46;2.40;99.90
15407;DHT22;7802;51.568;6.364;2022-11-20T08:01:34;-0.90;99.90
15407;DHT22;7802;51.568;6.364;2022-11-20T08:04:20;-0.90;99.90
15407;DHT22;7802;51.568;6.364;2022-11-20T08:07:07;-0.80;99.90
15407;DHT22;7802;51.568;6.364;2022-11-20T08:09:54;-0.80;99.90
15407;DHT22;7802;51.568;6.364;2022-11-20T08:12:45;-0.60;99.90
15407;DHT22;7802;51.568;6.364;2022-11-20T08:15:51;-0.70;99.90
15407;DHT22;7802;51.568;6.364;2022-11-20T08:18:38;-0.70;99.90
15407;DHT22;7802;51.568;6.364;2022-11-20T08:21:25;-0.50;99.90
15407;DHT22;7802;51.568;6.364;2022-11-20T08:24:12;-0.50;99.90
15407;DHT22;7802;51.568;6.364;2022-11-20T08:26:59;-0.30;99.90
15407;DHT22;7802;51.568;6.364;2022-11-20T08:29:46;-0.10;99.90
15407;DHT22;7802;51.568;6.364;2022-11-20T08:32:33;0.10;99.90
15407;DHT22;7802;51.568;6.364;2022-11-20T08:35:22;0.20;99.90
15407;DHT22;7802;51.568;6.364;2022-11-20T08:38:09;0.50;99.90
15407;DHT22;7802;51.568;6.364;2022-11-20T08:40:56;0.50;99.90
15407;DHT22;7802;51.568;6.364;2022-11-20T08:44:03;0.70;99.90
15407;DHT22;7802;51.568;6.364;2022-11-20T08:46:51;0.80;99.90
15407;DHT22;7802;51.568;6.364;2022-11-20T08:49:38;0.90;99.90
15407;DHT22;7802;51.568;6.364;2022-11-20T08:52:25;1.20;99.90
15407;DHT22;7802;51.568;6.364;2022-11-20T08:55:13;1.10;99.90
15407;DHT22;7802;51.568;6.364;2022-11-20T08:58:03;1.20;99.90
15407;DHT22;7802;51.568;6.364;2022-11-20T09:00:50;1.30;99.90
15407;DHT22;7802;51.568;6.364;2022-11-20T09:03:37;1.30;99.90
15407;DHT22;7802;51.568;6.364;2022-11-20T09:06:24;1.20;99.90
15407;DHT22;7802;51.568;6.364;2022-11-20T09:09:11;1.20;99.90
15407;DHT22;7802;51.568;6.364;2022-11-20T09:11:58;1.50;99.90
15407;DHT22;7802;51.568;6.364;2022-11-20T09:14:45;1.70;99.90
15407;DHT22;7802;51.568;6.364;2022-11-20T09:17:38;1.20;99.90
15407;DHT22;7802;51.568;6.364;2022-11-20T09:20:26;1.50;99.90
15407;DHT22;7802;51.568;6.364;2022-11-20T09:23:15;1.40;99.90
15407;DHT22;7802;51.568;6.364;2022-11-20T09:26:05;1.70;99.90
15407;DHT22;7802;51.568;6.364;2022-11-20T09:28:52;1.80;99.90
15407;DHT22;7802;51.568;6.364;2022-11-20T09:31:44;1.90;99.90
15407;DHT22;7802;51.568;6.364;2022-11-20T09:34:31;2.20;99.90
15407;DHT22;7802;51.568;6.364;2022-11-20T09:37:18;2.10;99.90
15407;DHT22;7802;51.568;6.364;2022-11-20T09:40:06;3.00;99.90
15407;DHT22;7802;51.568;6.364;2022-11-20T09:42:58;2.30;99.90
15407;DHT22;7802;51.568;6.364;2022-11-20T09:45:56;2.50;99.90
15407;DHT22;7802;51.568;6.364;2022-11-20T09:48:59;2.30;99.90
15407;DHT22;7802;51.568;6.364;2022-11-20T09:51:57;2.50;99.90
15407;DHT22;7802;51.568;6.364;2022-11-20T09:55:12;2.70;99.90
15407;DHT22;7802;51.568;6.364;2022-11-20T09:58:00;2.70;99.90
15407;DHT22;7802;51.568;6.364;2022-11-20T10:04:31;2.80;99.90
15407;DHT22;7802;51.568;6.364;2022-11-20T10:11:21;3.10;99.90
15407;DHT22;7802;51.568;6.364;2022-11-20T10:14:38;3.50;99.90
15407;DHT22;7802;51.568;6.364;2022-11-20T10:26:22;3.50;99.90
15407;DHT22;7802;51.568;6.364;2022-11-20T10:29:38;3.80;99.90
15407;DHT22;7802;51.568;6.364;2022-11-20T10:32:32;3.90;99.90
15407;DHT22;7802;51.568;6.364;2022-11-20T10:36:54;3.90;99.90
15407;DHT22;7802;51.568;6.364;2022-11-20T10:39:47;4.40;99.90
15407;DHT22;7802;51.568;6.364;2022-11-20T10:42:43;4.10;99.90
15407;DHT22;7802;51.568;6.364;2022-11-20T10:45:40;3.90;99.90
15407;DHT22;7802;51.568;6.364;2022-11-20T10:48:31;4.00;99.90
15407;DHT22;7802;51.568;6.364;2022-11-20T10:51:30;3.90;99.90
15407;DHT22;7802;51.568;6.364;2022-11-20T10:54:23;4.20;99.90
15407;DHT22;7802;51.568;6.364;2022-11-20T10:57:23;4.30;99.90
15407;DHT22;7802;51.568;6.364;2022-11-20T11:00:12;4.90;99.90
15407;DHT22;7802;51.568;6.364;2022-11-20T11:03:00;4.40;99.90
15407;DHT22;7802;51.568;6.364;2022-11-20T11:05:51;4.40;99.90
15407;DHT22;7802;51.568;6.364;2022-11-20T11:08:41;4.40;99.90
15407;DHT22;7802;51.568;6.364;2022-11-20T11:11:32;4.50;99.90
15407;DHT22;7802;51.568;6.364;2022-11-20T11:14:20;4.40;99.90
15407;DHT22;7802;51.568;6.364;2022-11-20T11:17:24;4.80;99.90
15407;DHT22;7802;51.568;6.364;2022-11-20T11:20:16;4.40;99.90
15407;DHT22;7802;51.568;6.364;2022-11-20T11:23:05;4.50;99.90
15407;DHT22;7802;51.568;6.364;2022-11-20T11:25:58;4.60;99.90
15407;DHT22;7802;51.568;6.364;2022-11-20T11:28:53;4.50;99.90
15407;DHT22;7802;51.568;6.364;2022-11-20T11:31:40;4.40;99.90
15407;DHT22;7802;51.568;6.364;2022-11-20T11:34:27;4.60;99.90
15407;DHT22;7802;51.568;6.364;2022-11-20T11:37:19;4.50;99.90
15407;DHT22;7802;51.568;6.364;2022-11-20T11:40:11;4.40;99.90
15407;DHT22;7802;51.568;6.364;2022-11-20T11:43:34;4.40;99.90
15407;DHT22;7802;51.568;6.364;2022-11-20T11:46:36;4.50;99.90
15407;DHT22;7802;51.568;6.364;2022-11-20T11:49:24;4.60;99.90
15407;DHT22;7802;51.568;6.364;2022-11-20T11:52:14;4.40;99.90
15407;DHT22;7802;51.568;6.364;2022-11-20T11:55:04;4.30;99.90
15407;DHT22;7802;51.568;6.364;2022-11-20T11:58:08;4.40;99.90
15407;DHT22;7802;51.568;6.364;2022-11-20T12:00:58;4.60;99.90
15407;DHT22;7802;51.568;6.364;2022-11-20T12:03:55;4.50;99.90
15407;DHT22;7802;51.568;6.364;2022-11-20T12:07:12;4.40;99.90
15407;DHT22;7802;51.568;6.364;2022-11-20T12:10:33;4.50;99.90
15407;DHT22;7802;51.568;6.364;2022-11-20T12:13:34;4.50;99.90
15407;DHT22;7802;51.568;6.364;2022-11-20T12:16:23;4.90;99.90
15407;DHT22;7802;51.568;6.364;2022-11-20T12:19:35;4.90;99.90
15407;DHT22;7802;51.568;6.364;2022-11-20T12:22:30;4.80;99.90
15407;DHT22;7802;51.568;6.364;2022-11-20T12:25:21;4.80;99.90
15407;DHT22;7802;51.568;6.364;2022-11-20T12:28:28;4.90;99.90
15407;DHT22;7802;51.568;6.364;2022-11-20T12:31:32;4.90;99.90
15407;DHT22;7802;51.568;6.364;2022-11-20T12:37:47;5.00;99.90
15407;DHT22;7802;51.568;6.364;2022-11-20T12:40:38;4.90;99.90
15407;DHT22;7802;51.568;6.364;2022-11-20T12:43:32;4.90;99.90
15407;DHT22;7802;51.568;6.364;2022-11-20T12:46:44;5.10;99.90
15407;DHT22;7802;51.568;6.364;2022-11-20T12:49:36;5.00;99.90
15407;DHT22;7802;51.568;6.364;2022-11-20T12:52:33;4.90;99.90
15407;DHT22;7802;51.568;6.364;2022-11-20T12:55:33;5.00;99.90
15407;DHT22;7802;51.568;6.364;2022-11-20T12:58:31;5.60;99.90
15407;DHT22;7802;51.568;6.364;2022-11-20T13:01:25;4.90;99.90
15407;DHT22;7802;51.568;6.364;2022-11-20T13:04:43;5.10;99.90
15407;DHT22;7802;51.568;6.364;2022-11-20T13:07:35;5.00;99.90
15407;DHT22;7802;51.568;6.364;2022-11-20T13:10:27;5.00;99.90
15407;DHT22;7802;51.568;6.364;2022-11-20T13:13:24;5.00;99.90
